Triangle, New York
Current Conditions -  °F | °C
As of 2:53 PM on Thursday 23 Oct 2014 (Local Time) from KBGM Reporting Station
Light Rain Light Rain  
Wind Chill: 40°   Ceiling: 1500
Heat Index: 46°   Visibility: 5mi
Dew Point: 41°   Wind: 14mph
Humidity: 83%   Direction: 330°NNW
Pressure: 29.87"   Gusts: 28mph
Location:  42.3542°N, 75.7469°W
Report Text: KBGM 231853Z 33012G24KT 5SM -RA OVC015 08/05 A2987 RMK AO2 RAB23 SLP121 P0000 T00780050
Loading
Personal Weather Stations






























Interactive Weather Map
Tropical Storm Tracking
New forecast layout! Learn more

10-Day Weather Forecast

Advertisements
Track Severe Weather on mobile